Time;durP1;ratioP1;P1;durP2;ratioP2;P2;SDS_P1;SDS_P2;PMS_P1;PMS_P2;Temp;Humidity;BMP_temperature;BMP_pressure;BME280_temperature;BME280_humidity;BME280_pressure;Samples;Min_cycle;Max_cycle;Signal;HPM_P1;HPM_P2
2024/01/01 00:00:03;;;;;;;1999.90;999.90;;;8.40;99.90;;;;;;5076689;28;20414;-73
2024/01/01 00:02:30;;;;;;;1999.90;999.90;;;8.40;99.90;;;;;;5091410;28;20403;-69
2024/01/01 00:04:58;;;;;;;1999.90;999.90;;;8.40;99.90;;;;;;5076986;28;20427;-71
2024/01/01 00:07:26;;;;;;;1999.90;999.90;;;8.40;99.90;;;;;;5070916;28;20444;-72
2024/01/01 00:09:53;;;;;;;1999.90;999.90;;;8.40;99.90;;;;;;5083055;28;20410;-71
2024/01/01 00:12:19;;;;;;;1999.90;999.90;;;8.40;99.90;;;;;;5091303;28;20425;-70
2024/01/01 00:14:46;;;;;;;1999.90;999.90;;;8.30;99.90;;;;;;5077641;28;20665;-70
2024/01/01 00:17:13;;;;;;;1999.90;999.90;;;8.30;99.90;;;;;;5070810;28;20457;-70
2024/01/01 00:19:40;;;;;;;1999.90;999.90;;;8.30;99.90;;;;;;5089708;28;20456;-70
2024/01/01 00:22:07;;;;;;;1999.90;999.90;;;8.30;99.90;;;;;;5090819;28;20467;-71
2024/01/01 00:24:35;;;;;;;1999.90;999.90;;;8.30;99.90;;;;;;5079762;28;20428;-71
2024/01/01 00:27:02;;;;;;;1999.90;999.90;;;8.30;99.90;;;;;;5070551;28;20411;-70
2024/01/01 00:29:28;;;;;;;1999.90;999.90;;;8.20;99.90;;;;;;5087477;28;20445;-70
2024/01/01 00:31:55;;;;;;;1999.90;999.90;;;8.20;99.90;;;;;;5090677;28;20842;-70
2024/01/01 00:34:22;;;;;;;1999.90;999.90;;;8.20;99.90;;;;;;5079825;28;21495;-70
2024/01/01 00:36:49;;;;;;;1999.90;999.90;;;8.20;99.90;;;;;;5074769;28;20415;-70
2024/01/01 00:39:16;;;;;;;1999.90;999.90;;;8.20;99.90;;;;;;5077731;28;20413;-70
2024/01/01 00:41:45;;;;;;;1999.90;999.90;;;8.20;99.90;;;;;;5090665;28;20410;-70
2024/01/01 00:44:12;;;;;;;1999.90;999.90;;;8.20;99.90;;;;;;5084903;28;20433;-70
2024/01/01 00:46:38;;;;;;;1999.90;999.90;;;8.20;99.90;;;;;;5069398;28;20427;-70
2024/01/01 00:49:06;;;;;;;1999.90;999.90;;;8.10;99.90;;;;;;5070286;28;20408;-71
2024/01/01 00:51:33;;;;;;;1999.90;999.90;;;8.20;99.90;;;;;;5087749;28;20449;-70
2024/01/01 00:53:59;;;;;;;1999.90;999.90;;;8.20;99.90;;;;;;5087755;28;20460;-72
2024/01/01 00:56:26;;;;;;;1999.90;999.90;;;8.20;99.90;;;;;;5070611;28;20473;-72
2024/01/01 00:58:54;;;;;;;1999.90;999.90;;;8.20;99.90;;;;;;5082697;28;20471;-71
2024/01/01 01:01:20;;;;;;;1999.90;999.90;;;8.20;99.90;;;;;;5090545;28;20406;-71
2024/01/01 01:03:47;;;;;;;1999.90;999.90;;;8.20;99.90;;;;;;5090005;28;20405;-71
2024/01/01 01:06:14;;;;;;;1999.90;999.90;;;8.10;99.90;;;;;;5069311;28;20419;-70
2024/01/01 01:08:40;;;;;;;1999.90;999.90;;;8.10;99.90;;;;;;5080771;28;20406;-70
2024/01/01 01:11:07;;;;;;;1999.90;999.90;;;8.20;99.90;;;;;;5090393;28;20419;-70
2024/01/01 01:13:34;;;;;;;1999.90;999.90;;;8.30;99.90;;;;;;5090423;28;20811;-68
2024/01/01 01:16:02;;;;;;;1999.90;999.90;;;8.30;99.90;;;;;;5070904;28;20442;-74
2024/01/01 01:18:29;;;;;;;1999.90;999.90;;;8.30;99.90;;;;;;5071395;28;20418;-72
2024/01/01 01:20:55;;;;;;;1999.90;999.90;;;8.20;99.90;;;;;;5070044;28;20431;-72
2024/01/01 01:23:22;;;;;;;1999.90;999.90;;;8.10;99.90;;;;;;5082857;28;20413;-73
2024/01/01 01:25:49;;;;;;;1999.90;999.90;;;8.10;99.90;;;;;;5087081;28;20410;-71
2024/01/01 01:28:21;;;;;;;1999.90;999.90;;;8.00;99.90;;;;;;5082556;28;20427;-72
2024/01/01 01:30:48;;;;;;;1999.90;999.90;;;8.10;99.90;;;;;;5082367;28;20425;-71
2024/01/01 01:33:17;;;;;;;1999.90;999.90;;;8.20;99.90;;;;;;5071321;28;20407;-71
2024/01/01 01:35:44;;;;;;;1999.90;999.90;;;8.40;99.90;;;;;;5070700;28;20897;-72
2024/01/01 01:38:11;;;;;;;1999.90;999.90;;;8.30;99.90;;;;;;5076820;28;20433;-72
2024/01/01 01:40:38;;;;;;;1999.90;999.90;;;8.20;99.90;;;;;;5090531;28;20411;-72
2024/01/01 01:43:04;;;;;;;1999.90;999.90;;;8.20;99.90;;;;;;5094953;28;20412;-71
2024/01/01 01:45:31;;;;;;;1999.90;999.90;;;8.20;99.90;;;;;;5083131;28;20894;-71
2024/01/01 01:47:58;;;;;;;1999.90;999.90;;;8.10;99.90;;;;;;5072909;28;20883;-71
2024/01/01 01:50:26;;;;;;;1999.90;999.90;;;8.10;99.90;;;;;;5075144;28;20446;-70
2024/01/01 01:52:53;;;;;;;1999.90;999.90;;;8.00;99.90;;;;;;5073990;28;20423;-70
2024/01/01 01:55:22;;;;;;;1999.90;999.90;;;8.10;99.90;;;;;;5079216;28;20407;-70
2024/01/01 01:57:49;;;;;;;1999.90;999.90;;;8.30;99.90;;;;;;5083493;28;20417;-69
2024/01/01 02:00:16;;;;;;;1999.90;999.90;;;8.30;99.90;;;;;;5069849;28;20442;-70
2024/01/01 02:02:43;;;;;;;1999.90;999.90;;;8.10;99.90;;;;;;5073451;28;20411;-71
2024/01/01 02:05:10;;;;;;;1999.90;999.90;;;8.20;99.90;;;;;;5076847;28;20463;-72
2024/01/01 02:07:38;;;;;;;1999.90;999.90;;;8.10;99.90;;;;;;5072918;28;20411;-71
2024/01/01 02:10:05;;;;;;;1999.90;999.90;;;8.10;99.90;;;;;;5077427;28;20438;-65
2024/01/01 02:12:32;;;;;;;1999.90;999.90;;;8.20;99.90;;;;;;5075771;28;20432;-69
2024/01/01 02:14:59;;;;;;;1999.90;999.90;;;8.30;99.90;;;;;;5072650;28;20407;-72
2024/01/01 02:17:26;;;;;;;1999.90;999.90;;;8.30;99.90;;;;;;5079591;28;20415;-68
2024/01/01 02:19:52;;;;;;;1999.90;999.90;;;8.30;99.90;;;;;;5075762;28;20914;-71
2024/01/01 02:22:19;;;;;;;1999.90;999.90;;;8.30;99.90;;;;;;5074110;28;20407;-72
2024/01/01 02:24:47;;;;;;;1999.90;999.90;;;8.30;99.90;;;;;;5089419;28;20406;-72
2024/01/01 02:27:14;;;;;;;1999.90;999.90;;;8.40;99.90;;;;;;5072785;28;20441;-72
2024/01/01 02:29:41;;;;;;;1999.90;999.90;;;8.40;99.90;;;;;;5074265;28;20438;-72
2024/01/01 02:32:08;;;;;;;1999.90;999.90;;;8.30;99.90;;;;;;5068427;28;20431;-69
2024/01/01 02:34:34;;;;;;;1999.90;999.90;;;8.20;99.90;;;;;;5076017;28;20423;-71
2024/01/01 02:37:01;;;;;;;1999.90;999.90;;;8.40;99.90;;;;;;5085301;28;20432;-71
2024/01/01 02:39:28;;;;;;;1999.90;999.90;;;8.40;99.90;;;;;;5075929;28;20435;-72
2024/01/01 02:41:56;;;;;;;1999.90;999.90;;;8.20;99.90;;;;;;5070430;28;20475;-72
2024/01/01 02:44:22;;;;;;;1999.90;999.90;;;8.30;99.90;;;;;;5073033;28;20521;-71
2024/01/01 02:46:49;;;;;;;1999.90;999.90;;;8.30;99.90;;;;;;5081405;28;20414;-72
2024/01/01 02:49:16;;;;;;;1999.90;999.90;;;8.40;99.90;;;;;;5075478;28;20415;-73
2024/01/01 02:51:43;;;;;;;1999.90;999.90;;;8.40;99.90;;;;;;5072088;28;20478;-71
2024/01/01 02:54:10;;;;;;;1999.90;999.90;;;8.50;99.90;;;;;;5070286;28;20514;-73
2024/01/01 02:56:37;;;;;;;1999.90;999.90;;;8.40;99.90;;;;;;5077373;28;20419;-73
2024/01/01 02:59:05;;;;;;;1999.90;999.90;;;8.40;99.90;;;;;;5074896;28;20412;-73
2024/01/01 03:01:32;;;;;;;1999.90;999.90;;;8.30;99.90;;;;;;5078310;28;20445;-70
2024/01/01 03:03:58;;;;;;;1999.90;999.90;;;7.80;99.90;;;;;;5069903;28;20488;-73
2024/01/01 03:06:25;;;;;;;1999.90;999.90;;;8.20;99.90;;;;;;5070167;28;20403;-71
2024/01/01 03:08:52;;;;;;;1999.90;999.90;;;8.30;99.90;;;;;;5073178;28;20470;-71
2024/01/01 03:11:19;;;;;;;1999.90;999.90;;;8.30;99.90;;;;;;5069980;28;20423;-71
2024/01/01 03:13:46;;;;;;;1999.90;999.90;;;8.20;99.90;;;;;;5068732;28;20427;-73
2024/01/01 03:16:15;;;;;;;1999.90;999.90;;;8.30;99.90;;;;;;5069090;28;20939;-73
2024/01/01 03:18:41;;;;;;;1999.90;999.90;;;8.40;99.90;;;;;;5069737;28;20572;-74
2024/01/01 03:21:08;;;;;;;1999.90;999.90;;;8.50;99.90;;;;;;5071269;28;20461;-73
2024/01/01 03:23:35;;;;;;;1999.90;999.90;;;8.60;99.90;;;;;;5068954;28;20433;-72
2024/01/01 03:26:02;;;;;;;1999.90;999.90;;;8.60;99.90;;;;;;5080173;28;20916;-72
2024/01/01 03:28:29;;;;;;;1999.90;999.90;;;8.70;99.90;;;;;;5072752;28;20412;-73
2024/01/01 03:30:55;;;;;;;1999.90;999.90;;;8.50;99.90;;;;;;5071641;28;20411;-73
2024/01/01 03:33:23;;;;;;;1999.90;999.90;;;8.50;99.90;;;;;;5068525;28;20430;-73
2024/01/01 03:35:50;;;;;;;1999.90;999.90;;;8.50;99.90;;;;;;5077374;28;20414;-73
2024/01/01 03:38:17;;;;;;;1999.90;999.90;;;8.50;99.90;;;;;;5071957;28;20504;-70
2024/01/01 03:40:44;;;;;;;1999.90;999.90;;;8.60;99.90;;;;;;5073514;28;20453;-73
2024/01/01 03:43:10;;;;;;;1999.90;999.90;;;8.60;99.90;;;;;;5079148;28;20949;-73
2024/01/01 03:45:37;;;;;;;1999.90;999.90;;;8.50;99.90;;;;;;5071470;28;20882;-73
2024/01/01 03:48:04;;;;;;;1999.90;999.90;;;8.50;99.90;;;;;;5078186;28;20413;-73
2024/01/01 03:50:33;;;;;;;1999.90;999.90;;;8.50;99.90;;;;;;5080803;28;20434;-73
2024/01/01 03:52:59;;;;;;;1999.90;999.90;;;8.30;99.90;;;;;;5075107;28;20538;-73
2024/01/01 03:55:26;;;;;;;1999.90;999.90;;;8.20;99.90;;;;;;5067664;28;20855;-73
2024/01/01 03:57:53;;;;;;;1999.90;999.90;;;8.30;99.90;;;;;;5070564;28;20410;-73
2024/01/01 04:00:21;;;;;;;1999.90;999.90;;;8.30;99.90;;;;;;5076134;28;20408;-71
2024/01/01 04:02:48;;;;;;;1999.90;999.90;;;8.40;99.90;;;;;;5070716;28;20422;-71
2024/01/01 04:05:15;;;;;;;1999.90;999.90;;;8.40;99.90;;;;;;5074898;28;20435;-73
2024/01/01 04:07:43;;;;;;;1999.90;999.90;;;8.40;99.90;;;;;;5075992;28;20893;-73
2024/01/01 04:10:10;;;;;;;1999.90;999.90;;;8.30;99.90;;;;;;5072465;28;20411;-73
2024/01/01 04:12:37;;;;;;;1999.90;999.90;;;8.30;99.90;;;;;;5077267;28;20423;-74
2024/01/01 04:15:05;;;;;;;1999.90;999.90;;;8.20;99.90;;;;;;5078538;28;20492;-75
2024/01/01 04:17:32;;;;;;;1999.90;999.90;;;8.20;99.90;;;;;;5067719;28;20434;-71
2024/01/01 04:19:59;;;;;;;1999.90;999.90;;;8.10;99.90;;;;;;5076982;28;20419;-73
2024/01/01 04:22:25;;;;;;;1999.90;999.90;;;8.20;99.90;;;;;;5070598;28;20452;-72
2024/01/01 04:24:53;;;;;;;1999.90;999.90;;;8.20;99.90;;;;;;5069123;28;20423;-71
2024/01/01 04:27:20;;;;;;;1999.90;999.90;;;8.10;99.90;;;;;;5073346;28;20415;-71
2024/01/01 04:29:47;;;;;;;1999.90;999.90;;;8.10;99.90;;;;;;5086906;28;20495;-71
2024/01/01 04:32:14;;;;;;;1999.90;999.90;;;8.20;99.90;;;;;;5075413;28;20955;-72
2024/01/01 04:34:41;;;;;;;1999.90;999.90;;;8.20;99.90;;;;;;5070598;28;20416;-72
2024/01/01 04:37:07;;;;;;;1999.90;999.90;;;8.10;99.90;;;;;;5072439;28;20425;-72
2024/01/01 04:39:34;;;;;;;1999.90;999.90;;;8.10;99.90;;;;;;5070455;28;20419;-71
2024/01/01 04:42:03;;;;;;;1999.90;999.90;;;8.10;99.90;;;;;;5078550;28;20465;-72
2024/01/01 04:44:30;;;;;;;1999.90;999.90;;;8.10;99.90;;;;;;5073321;28;20429;-72
2024/01/01 04:46:56;;;;;;;1999.90;999.90;;;8.20;99.90;;;;;;5073730;28;20517;-73
2024/01/01 04:49:23;;;;;;;1999.90;999.90;;;8.30;99.90;;;;;;5070248;28;20415;-72
2024/01/01 04:51:50;;;;;;;1999.90;999.90;;;8.20;99.90;;;;;;5080741;28;20414;-72
2024/01/01 04:54:16;;;;;;;1999.90;999.90;;;8.20;99.90;;;;;;5075273;28;20427;-72
2024/01/01 04:56:43;;;;;;;1999.90;999.90;;;8.30;99.90;;;;;;5070088;28;20505;-72
2024/01/01 04:59:11;;;;;;;1999.90;999.90;;;8.20;99.90;;;;;;5070751;28;20411;-74
2024/01/01 05:01:38;;;;;;;1999.90;999.90;;;8.30;99.90;;;;;;5075510;28;20408;-72
2024/01/01 05:04:04;;;;;;;1999.90;999.90;;;8.30;99.90;;;;;;5068926;28;20468;-72
2024/01/01 05:06:31;;;;;;;1999.90;999.90;;;8.30;99.90;;;;;;5069171;28;20411;-73
2024/01/01 05:08:58;;;;;;;1999.90;999.90;;;8.40;99.90;;;;;;5070176;28;20475;-73
2024/01/01 05:11:24;;;;;;;1999.90;999.90;;;8.40;99.90;;;;;;5070436;28;20935;-74
2024/01/01 05:13:51;;;;;;;1999.90;999.90;;;8.40;99.90;;;;;;5085548;28;20479;-75
2024/01/01 05:16:19;;;;;;;1999.90;999.90;;;8.30;99.90;;;;;;5072885;28;20480;-75
2024/01/01 05:18:46;;;;;;;1999.90;999.90;;;8.30;99.90;;;;;;5068716;28;20494;-72
2024/01/01 05:21:13;;;;;;;1999.90;999.90;;;8.20;99.90;;;;;;5067994;28;20481;-71
2024/01/01 05:23:39;;;;;;;1999.90;999.90;;;8.20;99.90;;;;;;5085829;28;20407;-72
2024/01/01 05:26:07;;;;;;;1999.90;999.90;;;8.10;99.90;;;;;;5082320;28;20416;-73
2024/01/01 05:28:34;;;;;;;1999.90;999.90;;;8.10;99.90;;;;;;5073612;28;20408;-71
2024/01/01 05:31:01;;;;;;;1999.90;999.90;;;8.10;99.90;;;;;;5077229;28;20416;-72
2024/01/01 05:33:29;;;;;;;1999.90;999.90;;;8.10;99.90;;;;;;5077589;28;20426;-76
2024/01/01 05:35:55;;;;;;;1999.90;999.90;;;8.00;99.90;;;;;;5081492;28;20415;-70
2024/01/01 05:38:22;;;;;;;1999.90;999.90;;;8.10;99.90;;;;;;5074662;28;20411;-73
2024/01/01 05:40:49;;;;;;;1999.90;999.90;;;8.10;99.90;;;;;;5080605;28;21076;-73
2024/01/01 05:43:16;;;;;;;1999.90;999.90;;;8.10;99.90;;;;;;5082823;28;20428;-69
2024/01/01 05:45:42;;;;;;;1999.90;999.90;;;8.10;99.90;;;;;;5080054;28;20442;-70
2024/01/01 05:48:09;;;;;;;1999.90;999.90;;;8.20;99.90;;;;;;5081634;28;20418;-70
2024/01/01 05:50:37;;;;;;;1999.90;999.90;;;8.30;99.90;;;;;;5075589;28;20890;-70
2024/01/01 05:53:05;;;;;;;1999.90;999.90;;;8.30;99.90;;;;;;5073125;28;20431;-72
2024/01/01 05:55:31;;;;;;;1999.90;999.90;;;8.30;99.90;;;;;;5073653;28;20426;-69
2024/01/01 05:57:58;;;;;;;1999.90;999.90;;;8.30;99.90;;;;;;5076746;28;20437;-70
2024/01/01 06:00:25;;;;;;;1999.90;999.90;;;8.30;99.90;;;;;;5077897;28;20408;-70
2024/01/01 06:02:52;;;;;;;1999.90;999.90;;;8.30;99.90;;;;;;5073245;28;20465;-70
2024/01/01 06:05:19;;;;;;;1999.90;999.90;;;8.20;99.90;;;;;;5077719;28;20409;-70
2024/01/01 06:07:47;;;;;;;1999.90;999.90;;;8.20;99.90;;;;;;5073079;28;20407;-70
2024/01/01 06:10:14;;;;;;;1999.90;999.90;;;8.10;99.90;;;;;;5078041;28;20448;-71
2024/01/01 06:12:41;;;;;;;1999.90;999.90;;;8.00;99.90;;;;;;5074545;28;20431;-69
2024/01/01 06:15:08;;;;;;;1999.90;999.90;;;8.10;99.90;;;;;;5076746;28;20463;-71
2024/01/01 06:17:35;;;;;;;1999.90;999.90;;;8.10;99.90;;;;;;5079313;28;20415;-71
2024/01/01 06:20:03;;;;;;;1999.90;999.90;;;8.00;99.90;;;;;;5086811;28;20941;-71
2024/01/01 06:22:29;;;;;;;1999.90;999.90;;;7.90;99.90;;;;;;5072408;28;20412;-71
2024/01/01 06:24:58;;;;;;;1999.90;999.90;;;7.90;99.90;;;;;;5075643;28;20410;-71
2024/01/01 06:27:25;;;;;;;1999.90;999.90;;;7.80;99.90;;;;;;5072875;28;20774;-71
2024/01/01 06:29:51;;;;;;;1999.90;999.90;;;7.80;99.90;;;;;;5088139;28;20410;-71
2024/01/01 06:32:18;;;;;;;1999.90;999.90;;;7.80;99.90;;;;;;5074276;28;20486;-71
2024/01/01 06:34:46;;;;;;;1999.90;999.90;;;7.80;99.90;;;;;;5071767;28;20458;-71
2024/01/01 06:37:12;;;;;;;1999.90;999.90;;;7.70;99.90;;;;;;5067357;28;20889;-71
2024/01/01 06:39:39;;;;;;;1999.90;999.90;;;7.70;99.90;;;;;;5072235;28;20412;-71
2024/01/01 06:42:07;;;;;;;1999.90;999.90;;;7.80;99.90;;;;;;5084957;28;20410;-71
2024/01/01 06:44:33;;;;;;;1999.90;999.90;;;7.70;99.90;;;;;;5081538;28;20444;-71
2024/01/01 06:47:00;;;;;;;1999.90;999.90;;;7.80;99.90;;;;;;5071950;28;20504;-69
2024/01/01 06:49:27;;;;;;;1999.90;999.90;;;7.80;99.90;;;;;;5071982;28;20420;-71
2024/01/01 06:51:53;;;;;;;1999.90;999.90;;;7.70;99.90;;;;;;5068548;28;20411;-71
2024/01/01 06:54:20;;;;;;;1999.90;999.90;;;7.70;99.90;;;;;;5075011;28;20424;-71
2024/01/01 06:56:47;;;;;;;1999.90;999.90;;;7.70;99.90;;;;;;5072001;28;20427;-71
2024/01/01 06:59:16;;;;;;;1999.90;999.90;;;7.80;99.90;;;;;;5071712;28;20932;-70
2024/01/01 07:01:43;;;;;;;1999.90;999.90;;;7.80;99.90;;;;;;5079255;28;20419;-71
2024/01/01 07:04:10;;;;;;;1999.90;999.90;;;7.90;99.90;;;;;;5089080;28;20424;-71
2024/01/01 07:06:38;;;;;;;1999.90;999.90;;;7.90;99.90;;;;;;5082535;28;20909;-71
2024/01/01 07:09:05;;;;;;;1999.90;999.90;;;7.90;99.90;;;;;;5071236;28;20983;-71
2024/01/01 07:11:32;;;;;;;1999.90;999.90;;;8.00;99.90;;;;;;5071139;28;20522;-72
2024/01/01 07:13:59;;;;;;;1999.90;999.90;;;8.00;99.90;;;;;;5069770;28;20925;-71
2024/01/01 07:16:27;;;;;;;1999.90;999.90;;;7.90;99.90;;;;;;5069542;28;20434;-69
2024/01/01 07:18:54;;;;;;;1999.90;999.90;;;7.90;99.90;;;;;;5064457;28;20412;-71
2024/01/01 07:21:21;;;;;;;1999.90;999.90;;;8.00;99.90;;;;;;5070929;28;20794;-69
2024/01/01 07:23:48;;;;;;;1999.90;999.90;;;8.00;99.90;;;;;;5072177;28;20403;-71
2024/01/01 07:26:15;;;;;;;1999.90;999.90;;;8.00;99.90;;;;;;5071429;28;20416;-70
2024/01/01 07:28:42;;;;;;;1999.90;999.90;;;8.00;99.90;;;;;;5073087;28;20419;-71
2024/01/01 07:31:10;;;;;;;1999.90;999.90;;;8.00;99.90;;;;;;5073340;28;20427;-72
2024/01/01 07:33:38;;;;;;;1999.90;999.90;;;7.80;99.90;;;;;;5070988;28;20435;-70
2024/01/01 07:36:10;;;;;;;1999.90;999.90;;;7.70;99.90;;;;;;5070110;28;20909;-71
2024/01/01 07:38:36;;;;;;;1999.90;999.90;;;7.80;99.90;;;;;;5071864;28;20436;-71
2024/01/01 07:41:02;;;;;;;1999.90;999.90;;;7.90;99.90;;;;;;5070743;28;20419;-70
2024/01/01 07:43:29;;;;;;;1999.90;999.90;;;8.00;99.90;;;;;;5071217;28;20928;-72
2024/01/01 07:45:55;;;;;;;1999.90;999.90;;;8.00;99.90;;;;;;5075842;28;20430;-70
2024/01/01 07:48:22;;;;;;;1999.90;999.90;;;7.90;99.90;;;;;;5070982;28;20416;-71
2024/01/01 07:50:50;;;;;;;1999.90;999.90;;;7.80;99.90;;;;;;5071052;28;20421;-69
2024/01/01 07:53:17;;;;;;;1999.90;999.90;;;7.90;99.90;;;;;;5071099;28;20435;-71
2024/01/01 07:55:43;;;;;;;1999.90;999.90;;;8.00;99.90;;;;;;5078233;28;20435;-70
2024/01/01 07:58:10;;;;;;;1999.90;999.90;;;8.00;99.90;;;;;;5083178;28;20422;-71
2024/01/01 08:00:37;;;;;;;1999.90;999.90;;;8.00;99.90;;;;;;5080254;28;20404;-71
2024/01/01 08:03:04;;;;;;;1999.90;999.90;;;8.00;99.90;;;;;;5077237;28;20432;-70
2024/01/01 08:05:31;;;;;;;1999.90;999.90;;;7.90;99.90;;;;;;5070158;28;20412;-72
2024/01/01 08:07:59;;;;;;;1999.90;999.90;;;8.00;99.90;;;;;;5081880;28;20413;-71
2024/01/01 08:10:25;;;;;;;1999.90;999.90;;;8.00;99.90;;;;;;5080211;28;20469;-71
2024/01/01 08:12:52;;;;;;;1999.90;999.90;;;8.10;99.90;;;;;;5072128;28;20434;-71
2024/01/01 08:15:19;;;;;;;1999.90;999.90;;;8.10;99.90;;;;;;5070833;28;20432;-73
2024/01/01 08:17:45;;;;;;;1999.90;999.90;;;8.10;99.90;;;;;;5090058;28;20410;-74
2024/01/01 08:20:12;;;;;;;1999.90;999.90;;;8.20;99.90;;;;;;5091239;28;20463;-73
2024/01/01 08:22:39;;;;;;;1999.90;999.90;;;8.30;99.90;;;;;;5073700;28;20466;-73
2024/01/01 08:25:08;;;;;;;1999.90;999.90;;;8.30;99.90;;;;;;5069827;28;20465;-72
2024/01/01 08:27:34;;;;;;;1999.90;999.90;;;8.40;99.90;;;;;;5083485;28;20455;-73
2024/01/01 08:30:01;;;;;;;1999.90;999.90;;;8.30;99.90;;;;;;5076088;28;20431;-74
2024/01/01 08:32:28;;;;;;;1999.90;999.90;;;8.30;99.90;;;;;;5064712;28;20409;-74
2024/01/01 08:34:54;;;;;;;1999.90;999.90;;;8.40;99.90;;;;;;5068171;28;20444;-75
2024/01/01 08:37:21;;;;;;;1999.90;999.90;;;8.40;99.90;;;;;;5073615;28;20419;-70
2024/01/01 08:39:48;;;;;;;1999.90;999.90;;;8.40;99.90;;;;;;5074130;28;20415;-70
2024/01/01 08:42:16;;;;;;;1999.90;999.90;;;8.40;99.90;;;;;;5074673;28;20420;-72
2024/01/01 08:44:43;;;;;;;1999.90;999.90;;;8.50;99.90;;;;;;5069543;28;20461;-72
2024/01/01 08:47:09;;;;;;;1999.90;999.90;;;8.50;99.90;;;;;;5073829;28;20417;-74
2024/01/01 08:49:36;;;;;;;1999.90;999.90;;;8.60;99.90;;;;;;5068665;28;20552;-73
2024/01/01 08:52:03;;;;;;;1999.90;999.90;;;8.70;99.90;;;;;;5070327;28;20443;-72
2024/01/01 08:54:29;;;;;;;1999.90;999.90;;;8.60;99.90;;;;;;5071772;28;20978;-73
2024/01/01 08:56:56;;;;;;;1999.90;999.90;;;8.70;99.90;;;;;;5072384;28;20416;-72
2024/01/01 08:59:24;;;;;;;1999.90;999.90;;;8.70;99.90;;;;;;5074671;28;20416;-70
2024/01/01 09:01:51;;;;;;;1999.90;999.90;;;8.70;99.90;;;;;;5072639;28;20427;-72
2024/01/01 09:04:18;;;;;;;1999.90;999.90;;;8.80;99.90;;;;;;5070930;28;20524;-73
2024/01/01 09:06:45;;;;;;;1999.90;999.90;;;8.80;99.90;;;;;;5069842;28;20898;-72
2024/01/01 09:09:12;;;;;;;1999.90;999.90;;;8.80;99.90;;;;;;5071706;28;20476;-72
2024/01/01 09:11:39;;;;;;;1999.90;999.90;;;8.70;99.90;;;;;;5074697;28;20487;-72
2024/01/01 09:14:05;;;;;;;1999.90;999.90;;;8.70;99.90;;;;;;5072193;28;20432;-73
2024/01/01 09:16:33;;;;;;;1999.90;999.90;;;8.70;99.90;;;;;;5072137;28;20408;-71
2024/01/01 09:19:00;;;;;;;1999.90;999.90;;;8.70;99.90;;;;;;5076662;28;20916;-70
2024/01/01 09:21:27;;;;;;;1999.90;999.90;;;8.70;99.90;;;;;;5058572;28;20514;-73
2024/01/01 09:23:57;;;;;;;1999.90;999.90;;;8.70;99.90;;;;;;5071040;28;20451;-71
2024/01/01 09:26:24;;;;;;;1999.90;999.90;;;8.80;99.90;;;;;;5070621;28;20538;-69
2024/01/01 09:28:51;;;;;;;1999.90;999.90;;;8.70;99.90;;;;;;5073879;28;20886;-72
2024/01/01 09:31:17;;;;;;;1999.90;999.90;;;8.60;99.90;;;;;;5066212;28;20433;-74
2024/01/01 09:33:45;;;;;;;1999.90;999.90;;;8.70;99.90;;;;;;5064862;28;20427;-74
2024/01/01 09:36:13;;;;;;;1999.90;999.90;;;8.70;99.90;;;;;;5073600;28;20415;-74
2024/01/01 09:38:40;;;;;;;1999.90;999.90;;;8.80;99.90;;;;;;5068370;28;20509;-73
2024/01/01 09:41:10;;;;;;;1999.90;999.90;;;8.70;99.90;;;;;;5076835;28;20406;-71
2024/01/01 09:43:37;;;;;;;1999.90;999.90;;;8.70;99.90;;;;;;5071609;28;20507;-72
2024/01/01 09:46:05;;;;;;;1999.90;999.90;;;8.70;99.90;;;;;;5069921;28;20412;-71
2024/01/01 09:48:32;;;;;;;1999.90;999.90;;;8.60;99.90;;;;;;5069857;28;20461;-73
2024/01/01 09:51:02;;;;;;;1999.90;999.90;;;8.70;99.90;;;;;;5069495;28;20438;-73
2024/01/01 09:53:31;;;;;;;1999.90;999.90;;;8.80;99.90;;;;;;5072846;28;20885;-75
2024/01/01 09:55:57;;;;;;;1999.90;999.90;;;8.90;99.90;;;;;;5067617;28;20431;-70
2024/01/01 09:58:24;;;;;;;1999.90;999.90;;;9.00;99.90;;;;;;5077244;28;20417;-71
2024/01/01 10:00:51;;;;;;;1999.90;999.90;;;9.10;99.90;;;;;;5089630;28;20413;-73
2024/01/01 10:03:18;;;;;;;1999.90;999.90;;;9.20;99.90;;;;;;5089822;28;20413;-71
2024/01/01 10:05:48;;;;;;;1999.90;999.90;;;9.10;99.90;;;;;;5069451;28;20427;-70
2024/01/01 10:08:16;;;;;;;1999.90;999.90;;;9.10;99.90;;;;;;5079900;28;20424;-73
2024/01/01 10:10:44;;;;;;;1999.90;999.90;;;9.30;99.90;;;;;;5091921;28;20443;-72
2024/01/01 10:13:11;;;;;;;1999.90;999.90;;;9.40;99.90;;;;;;5077847;28;20435;-73
2024/01/01 10:15:39;;;;;;;1999.90;999.90;;;9.50;99.90;;;;;;5071939;28;20457;-73
2024/01/01 10:18:10;;;;;;;1999.90;999.90;;;9.40;99.90;;;;;;5078014;28;20405;-73
2024/01/01 10:20:37;;;;;;;1999.90;999.90;;;9.50;99.90;;;;;;5093358;28;20466;-73
2024/01/01 10:23:27;;;;;;;1999.90;999.90;;;9.40;99.90;;;;;;5082326;28;20456;-73
2024/01/01 10:26:04;;;;;;;1999.90;999.90;;;9.40;99.90;;;;;;5073440;28;20415;-72
2024/01/01 10:28:32;;;;;;;1999.90;999.90;;;9.30;99.90;;;;;;5072777;28;20893;-73
2024/01/01 10:31:00;;;;;;;1999.90;999.90;;;9.40;99.90;;;;;;5080765;28;20453;-73
2024/01/01 10:33:28;;;;;;;1999.90;999.90;;;9.30;99.90;;;;;;5086736;28;20489;-73
2024/01/01 10:35:54;;;;;;;1999.90;999.90;;;9.30;99.90;;;;;;5072649;28;20917;-73
2024/01/01 10:38:25;;;;;;;1999.90;999.90;;;9.40;99.90;;;;;;5088392;28;20406;-73
2024/01/01 10:40:55;;;;;;;1999.90;999.90;;;9.40;99.90;;;;;;5084370;28;20417;-72
2024/01/01 10:43:25;;;;;;;1999.90;999.90;;;9.40;99.90;;;;;;5092658;28;20410;-73
2024/01/01 10:45:54;;;;;;;1999.90;999.90;;;9.50;99.90;;;;;;5089115;28;20450;-71
2024/01/01 10:48:23;;;;;;;1999.90;999.90;;;9.50;99.90;;;;;;5070904;28;20408;-73
2024/01/01 10:51:14;;;;;;;1999.90;999.90;;;9.40;99.90;;;;;;5074212;28;20446;-73
2024/01/01 10:54:02;;;;;;;1999.90;999.90;;;9.30;99.90;;;;;;5075466;28;20479;-73
2024/01/01 10:56:39;;;;;;;1999.90;999.90;;;9.40;99.90;;;;;;5084713;28;20473;-74
2024/01/01 10:59:12;;;;;;;1999.90;999.90;;;9.20;99.90;;;;;;5072321;28;20422;-71
2024/01/01 11:01:39;;;;;;;1999.90;999.90;;;8.90;99.90;;;;;;5090282;28;20414;-72
2024/01/01 11:04:06;;;;;;;1999.90;999.90;;;8.90;99.90;;;;;;5090696;28;20417;-72
2024/01/01 11:06:33;;;;;;;1999.90;999.90;;;8.90;99.90;;;;;;5073407;28;20463;-73
2024/01/01 11:09:30;;;;;;;1999.90;999.90;;;9.00;99.90;;;;;;5070555;28;20426;-73
2024/01/01 11:12:00;;;;;;;1999.90;999.90;;;9.10;99.90;;;;;;5070371;28;20409;-75
2024/01/01 11:14:28;;;;;;;1999.90;999.90;;;9.10;99.90;;;;;;5063414;28;20425;-75
2024/01/01 11:16:56;;;;;;;1999.90;999.90;;;9.10;99.90;;;;;;5067595;28;20465;-72
2024/01/01 11:19:46;;;;;;;1999.90;999.90;;;9.20;99.90;;;;;;5075909;28;21376;-72
2024/01/01 11:22:31;;;;;;;1999.90;999.90;;;9.20;99.90;;;;;;5065538;28;20511;-72
2024/01/01 11:25:00;;;;;;;1999.90;999.90;;;8.90;99.90;;;;;;5071722;28;20486;-74
2024/01/01 11:27:31;;;;;;;1999.90;999.90;;;8.90;99.90;;;;;;5070861;28;20418;-73
2024/01/01 11:30:01;;;;;;;1999.90;999.90;;;9.10;99.90;;;;;;5073153;28;20406;-72
2024/01/01 11:32:27;;;;;;;1999.90;999.90;;;9.40;99.90;;;;;;5070089;28;20970;-73
2024/01/01 11:35:05;;;;;;;1999.90;999.90;;;9.50;99.90;;;;;;5077648;28;20429;-74
2024/01/01 11:37:31;;;;;;;1999.90;999.90;;;9.80;99.90;;;;;;5077087;28;20416;-72
2024/01/01 11:39:59;;;;;;;1999.90;999.90;;;9.70;99.90;;;;;;5073723;28;20442;-72
2024/01/01 11:42:26;;;;;;;1999.90;999.90;;;9.80;99.90;;;;;;5071310;28;20418;-70
2024/01/01 11:45:07;;;;;;;1999.90;999.90;;;10.00;99.90;;;;;;5077030;28;20503;-71
2024/01/01 11:47:34;;;;;;;1999.90;999.90;;;10.20;99.90;;;;;;5076725;28;20412;-73
2024/01/01 11:50:03;;;;;;;1999.90;999.90;;;10.20;99.90;;;;;;5073799;28;20412;-71
2024/01/01 11:52:30;;;;;;;1999.90;999.90;;;10.30;99.90;;;;;;5072827;28;20769;-71
2024/01/01 11:54:57;;;;;;;1999.90;999.90;;;10.30;99.90;;;;;;5075096;28;20422;-69
2024/01/01 11:57:24;;;;;;;1999.90;999.90;;;10.20;99.90;;;;;;5075273;28;20423;-73
2024/01/01 11:59:51;;;;;;;1999.90;999.90;;;10.00;99.90;;;;;;5080294;28;20418;-72
2024/01/01 12:02:20;;;;;;;1999.90;999.90;;;9.90;99.90;;;;;;5077882;28;20499;-70
2024/01/01 12:04:47;;;;;;;1999.90;999.90;;;10.00;99.90;;;;;;5076691;28;20485;-70
2024/01/01 12:07:27;;;;;;;1999.90;999.90;;;10.10;99.90;;;;;;5076180;28;21120;-72
2024/01/01 12:10:03;;;;;;;1999.90;999.90;;;10.00;99.90;;;;;;5073987;28;20938;-69